Flight Track Log - Related Links

Times and Time Zones

All times are in EDT time to prevent confusion due to time zone crossing. See the KAP188 flight status page for this flight to view local times or setup timezone preferences in your user account.

Time Position Orientation Groundspeed Altitude Reporting Facility
EDT Latitude Longitude Course Direction KTS MPH feet Rate Location/Type
Fri 12:58:16 PM 42.3333 -70.9333 147° Southeast 120 138 1,500  Level KA90
Fri 12:59:22 PM 42.3000 -70.9000 144° Southeast 118 136 2,000 450 Climbing KA90
Fri 01:00:16 PM 42.2833 -70.8667 124° Southeast 121 139 2,400 531 Climbing KA90
Fri 01:01:15 PM 42.2667 -70.8333 124° Southeast 119 137 3,000 550 Climbing KA90
Fri 01:02:16 PM 42.2333 -70.8000 143° Southeast 118 136 3,500 500 Climbing KA90
Fri 01:03:00 PM 42.2080 -70.8719 147° Southeast  Level Estimated
Fri 01:03:15 PM 42.2167 -70.7667 124° Southeast 121 139 4,000  Level KA90
Fri 01:04:16 PM 42.2000 -70.7333 124° Southeast 117 135 4,500 492 Climbing KA90
Fri 01:06:00 PM 42.1598 -70.7043 152° Southeast  Level Estimated
Fri 01:13:00 PM 41.9973 -70.5874 152° Southeast  Level Estimated
Fri 01:14:00 PM 41.9741 -70.5707 152° Southeast  Level Estimated
Fri 01:15:00 PM 41.9509 -70.5541 152° Southeast  Level Estimated
Fri 01:16:00 PM 41.9277 -70.5374 152° Southeast  Level Estimated
Fri 01:17:00 PM 41.9044 -70.5208 152° Southeast  Level Estimated
Fri 01:18:00 PM 41.8812 -70.5042 152° Southeast  Level Estimated
Fri 01:19:00 PM 41.8580 -70.4876 152° Southeast  Level Estimated
Fri 01:20:00 PM 41.8348 -70.4710 152° Southeast  Level Estimated
Fri 01:21:00 PM 41.8115 -70.4545 152° Southeast  Level Estimated
Fri 01:22:00 PM 41.7883 -70.4379 152° Southeast  Level Estimated
Fri 01:23:00 PM 41.7650 -70.4214 152° Southeast  Level Estimated
Fri 01:24:00 PM 41.7418 -70.4048 152° Southeast  Level Estimated
Fri 01:25:00 PM 41.7186 -70.3883 152° Southeast  Level Estimated
Fri 01:26:00 PM 41.6953 -70.3718 152° Southeast  Level Estimated
Fri 01:27:00 PM 41.6721 -70.3553 152° Southeast  Level Estimated
Fri 01:28:00 PM 41.6488 -70.3388 152° Southeast  Level Estimated
Fri 01:29:00 PM 41.6255 -70.3223 152° Southeast  Level Estimated
Fri 01:30:00 PM 41.6023 -70.3059 152° Southeast  Level Estimated
Fri 01:31:00 PM 41.5790 -70.2894 152° Southeast  Level Estimated
Fri 01:32:00 PM 41.5558 -70.2730 152° Southeast  Level Estimated
Fri 01:33:00 PM 41.5325 -70.2566 152° Southeast  Level Estimated
Fri 01:34:00 PM 41.5092 -70.2401 152° Southeast  Level Estimated
Fri 01:35:00 PM 41.4860 -70.2237 152° Southeast  Level Estimated
Fri 01:36:00 PM 41.4627 -70.2073 152° Southeast  Level Estimated
Fri 01:37:00 PM 41.4394 -70.1910 152° Southeast  Level Estimated
Fri 01:38:00 PM 41.4161 -70.1746 152° Southeast  Level Estimated
Fri 01:39:00 PM 41.3929 -70.1582 152° Southeast  Level Estimated
Fri 01:40:00 PM 41.3696 -70.1419 152° Southeast  Level Estimated
Fri 01:41:00 PM 41.3463 -70.1256 152° Southeast  Level Estimated
Fri 01:42:00 PM 41.3230 -70.1092 152° Southeast  Level Estimated
Fri 01:43:00 PM 41.2997 -70.0929 152° Southeast  Level Estimated
Fri 01:44:00 PM 41.2765 -70.0766 152° Southeast  Level Estimated
Fri 01:45:00 PM 41.2532 -70.0603 152° Southeast  Level Estimated
Fri 01:46:00 PM 41.2531 -70.0603 152° Southeast  Level Estimated
Fri 01:47:00 PM 41.2531 -70.0603 72° East  Level Estimated
Fri 01:48:00 PM 41.2531 -70.0603 72° East  Level Estimated

Login

Don't have an account? Register now (free) for customized features, flight alerts, and more!